Time;durP1;ratioP1;P1;durP2;ratioP2;P2;SDS_P1;SDS_P2;PMS_P1;PMS_P2;Temp;Humidity;BMP_temperature;BMP_pressure;BME280_temperature;BME280_humidity;BME280_pressure;Samples;Min_cycle;Max_cycle;Signal;HPM_P1;HPM_P2
2021/03/16 00:00:14;;;;;;;18.47;12.97;;;7.00;75.70;;;;;;5031917;28;20270;-87
2021/03/16 00:02:41;;;;;;;22.90;14.10;;;6.90;76.50;;;;;;5031711;28;20215;-86
2021/03/16 00:05:09;;;;;;;18.30;13.67;;;6.90;77.70;;;;;;5033391;28;20220;-86
2021/03/16 00:07:39;;;;;;;19.57;13.80;;;7.00;78.50;;;;;;5017100;28;20209;-87
2021/03/16 00:10:07;;;;;;;19.93;13.43;;;7.00;79.00;;;;;;5026837;28;20638;-87
2021/03/16 00:12:34;;;;;;;22.67;13.67;;;7.00;79.30;;;;;;5035489;28;20203;-86
2021/03/16 00:15:02;;;;;;;20.13;13.50;;;7.10;79.00;;;;;;5037637;28;20614;-86
2021/03/16 00:17:30;;;;;;;17.93;13.07;;;7.10;79.00;;;;;;5038533;28;20548;-86
2021/03/16 00:19:57;;;;;;;17.13;13.90;;;7.00;78.90;;;;;;5048743;28;20211;-86
2021/03/16 00:22:28;;;;;;;25.70;15.03;;;7.00;78.90;;;;;;5037010;28;20530;-86
2021/03/16 00:25:13;;;;;;;20.87;13.47;;;7.00;78.90;;;;;;5037484;28;20624;-85
2021/03/16 00:27:40;;;;;;;16.27;12.67;;;7.00;78.90;;;;;;5037702;28;20610;-86
2021/03/16 00:30:08;;;;;;;21.07;13.03;;;7.10;78.90;;;;;;5024871;28;20676;-86
2021/03/16 00:32:35;;;;;;;17.40;12.93;;;7.00;78.90;;;;;;5025601;28;20246;-86
2021/03/16 00:35:03;;;;;;;15.10;12.23;;;7.00;79.40;;;;;;5036349;28;20219;-86
2021/03/16 00:37:30;;;;;;;17.47;13.97;;;7.00;79.40;;;;;;5038440;28;20215;-86
2021/03/16 00:39:58;;;;;;;18.80;13.40;;;6.90;79.10;;;;;;5045832;28;20211;-85
2021/03/16 00:42:25;;;;;;;15.23;12.87;;;6.90;79.00;;;;;;5055767;28;20206;-87
2021/03/16 00:44:58;;;;;;;15.33;12.63;;;6.80;78.90;;;;;;5056172;28;20219;-86
2021/03/16 00:47:25;;;;;;;16.97;13.60;;;6.80;79.00;;;;;;5037988;28;20215;-86
2021/03/16 00:49:53;;;;;;;20.93;14.07;;;6.80;79.00;;;;;;5037389;28;20260;-85
2021/03/16 00:52:19;;;;;;;20.50;13.90;;;6.80;79.20;;;;;;5036752;28;20209;-86
2021/03/16 00:54:47;;;;;;;24.43;14.97;;;6.70;79.10;;;;;;5050514;28;20222;-86
2021/03/16 00:57:14;;;;;;;20.27;13.63;;;6.70;79.20;;;;;;5038327;28;20234;-85
2021/03/16 00:59:41;;;;;;;22.57;15.77;;;6.60;79.50;;;;;;5038083;28;20227;-85
2021/03/16 01:02:10;;;;;;;19.63;14.80;;;6.50;80.10;;;;;;5051032;28;20554;-85
2021/03/16 01:04:38;;;;;;;26.70;17.37;;;6.50;80.50;;;;;;5046435;28;20307;-85
2021/03/16 01:07:05;;;;;;;21.57;16.33;;;6.40;80.60;;;;;;5039518;28;20227;-86
2021/03/16 01:09:32;;;;;;;22.00;16.27;;;6.40;80.90;;;;;;5042338;28;20207;-85
2021/03/16 01:11:59;;;;;;;21.23;15.73;;;6.30;81.00;;;;;;5055988;28;20213;-86
2021/03/16 01:14:27;;;;;;;19.70;15.33;;;6.30;81.00;;;;;;5037733;28;20215;-86
2021/03/16 01:16:54;;;;;;;19.93;15.73;;;6.20;80.90;;;;;;5036278;28;20219;-86
2021/03/16 01:19:24;;;;;;;23.47;15.87;;;6.10;80.70;;;;;;5035031;28;20211;-86
2021/03/16 01:21:51;;;;;;;19.83;15.60;;;6.10;80.70;;;;;;5027503;28;20235;-86
2021/03/16 01:24:18;;;;;;;23.37;16.50;;;6.00;80.60;;;;;;5017376;28;20689;-85
2021/03/16 01:26:45;;;;;;;20.23;15.73;;;6.00;80.80;;;;;;5043947;28;20202;-85
2021/03/16 01:29:12;;;;;;;20.60;15.77;;;5.90;80.80;;;;;;5042111;28;20243;-86
2021/03/16 01:31:39;;;;;;;21.33;16.90;;;5.90;81.00;;;;;;5023759;28;20310;-85
2021/03/16 01:34:07;;;;;;;25.63;17.37;;;5.90;81.20;;;;;;5011498;28;20241;-86
2021/03/16 01:36:34;;;;;;;20.77;16.00;;;5.80;81.50;;;;;;5019535;28;20223;-86
2021/03/16 01:39:01;;;;;;;19.03;15.87;;;5.90;82.00;;;;;;5017265;28;20286;-85
2021/03/16 01:41:30;;;;;;;22.43;16.43;;;5.90;82.00;;;;;;5016938;28;20557;-86
2021/03/16 01:43:58;;;;;;;24.90;15.83;;;5.90;81.70;;;;;;5016357;28;20727;-86
2021/03/16 01:46:25;;;;;;;22.37;16.47;;;5.90;81.70;;;;;;5012607;28;20230;-86
2021/03/16 01:48:52;;;;;;;22.40;16.17;;;5.90;82.00;;;;;;5010699;28;20215;-85
2021/03/16 01:51:19;;;;;;;21.70;16.20;;;5.90;82.20;;;;;;5017471;28;20218;-85
2021/03/16 01:53:47;;;;;;;20.00;15.53;;;5.80;82.20;;;;;;5002127;28;20208;-86
2021/03/16 01:56:24;;;;;;;25.93;16.57;;;5.80;82.30;;;;;;5017539;28;20207;-86
2021/03/16 01:58:55;;;;;;;21.00;15.30;;;5.80;82.50;;;;;;5016850;28;20298;-85
2021/03/16 02:01:23;;;;;;;20.67;14.77;;;5.80;82.60;;;;;;5016421;28;20520;-86
2021/03/16 02:03:54;;;;;;;22.60;16.60;;;5.80;82.60;;;;;;5005763;28;20282;-86
2021/03/16 02:06:45;;;;;;;20.87;15.80;;;5.70;82.50;;;;;;5000116;28;20216;-87
2021/03/16 02:09:40;;;;;;;28.47;18.03;;;5.60;84.10;;;;;;5005003;28;20196;-86
2021/03/16 02:12:38;;;;;;;23.70;17.13;;;5.60;84.60;;;;;;5015701;28;20681;-86
2021/03/16 02:15:13;;;;;;;19.43;15.47;;;5.60;84.70;;;;;;5014601;28;20626;-86
2021/03/16 02:17:43;;;;;;;19.53;16.50;;;5.60;84.80;;;;;;5010215;28;20215;-86
2021/03/16 02:22:48;;;;;;;19.87;15.57;;;5.50;85.90;;;;;;2955086;26;20236;-59
2021/03/16 02:25:59;;;;;;;19.43;16.03;;;5.50;86.10;;;;;;4973777;28;20256;-59
2021/03/16 02:28:41;;;;;;;22.40;14.53;;;5.60;85.90;;;;;;4902158;28;20229;-59
2021/03/16 02:31:11;;;;;;;16.17;13.43;;;5.60;85.30;;;;;;4968628;28;20295;-59
2021/03/16 02:33:39;;;;;;;20.93;15.50;;;5.60;84.60;;;;;;4957186;28;20220;-59
2021/03/16 02:36:07;;;;;;;20.00;15.00;;;5.50;84.20;;;;;;4972450;28;20217;-59
2021/03/16 02:38:44;;;;;;;22.90;15.70;;;5.40;84.20;;;;;;4972938;28;20217;-59
2021/03/16 02:41:15;;;;;;;18.67;14.57;;;5.40;84.30;;;;;;4962079;28;20213;-59
2021/03/16 02:43:43;;;;;;;18.23;14.37;;;5.40;84.50;;;;;;4965568;28;20248;-59
2021/03/16 02:46:10;;;;;;;23.27;15.23;;;5.30;84.50;;;;;;4973685;28;20219;-59
2021/03/16 02:48:39;;;;;;;18.87;14.57;;;5.30;84.40;;;;;;4968794;28;20288;-60
2021/03/16 02:51:06;;;;;;;26.27;16.10;;;5.30;84.50;;;;;;4972202;28;20245;-59
2021/03/16 02:53:34;;;;;;;18.23;14.90;;;5.30;84.70;;;;;;4971586;28;20643;-59
2021/03/16 02:56:02;;;;;;;22.80;14.97;;;5.30;84.80;;;;;;4969911;28;20247;-59
2021/03/16 02:58:29;;;;;;;22.10;15.33;;;5.30;84.80;;;;;;4957053;28;20515;-59
2021/03/16 03:00:59;;;;;;;21.37;15.73;;;5.30;85.00;;;;;;4966554;28;20230;-59
2021/03/16 03:03:29;;;;;;;20.70;15.60;;;5.30;85.60;;;;;;4955991;28;20687;-60
2021/03/16 03:05:58;;;;;;;20.30;15.37;;;5.30;85.10;;;;;;4964608;28;20219;-59
2021/03/16 03:08:26;;;;;;;19.07;14.90;;;5.30;86.00;;;;;;4952939;28;20213;-59
2021/03/16 03:10:55;;;;;;;19.37;15.37;;;5.30;86.00;;;;;;4958409;28;20224;-59
2021/03/16 03:13:21;;;;;;;16.37;14.50;;;5.30;85.90;;;;;;4970732;28;20551;-59
2021/03/16 03:15:48;;;;;;;16.63;13.60;;;5.30;85.80;;;;;;4973178;28;20215;-59
2021/03/16 03:18:15;;;;;;;16.73;13.50;;;5.30;85.60;;;;;;4948771;28;20213;-59
2021/03/16 03:20:41;;;;;;;17.07;13.13;;;5.30;85.50;;;;;;4963966;28;20232;-60
2021/03/16 03:23:11;;;;;;;15.40;12.97;;;5.20;85.20;;;;;;4966618;28;20591;-59
2021/03/16 03:25:41;;;;;;;17.27;12.37;;;5.20;85.00;;;;;;4965567;28;20212;-59
2021/03/16 03:28:37;;;;;;;13.70;11.80;;;5.20;84.80;;;;;;4960844;28;20213;-59
2021/03/16 03:31:06;;;;;;;17.83;12.67;;;5.20;84.60;;;;;;4951761;28;20225;-60
2021/03/16 03:33:34;;;;;;;18.43;13.27;;;5.10;84.30;;;;;;4972853;28;20229;-59
2021/03/16 03:36:03;;;;;;;23.17;12.10;;;5.10;84.60;;;;;;4968353;28;20221;-58
2021/03/16 03:38:31;;;;;;;17.20;12.03;;;5.10;84.80;;;;;;4953347;28;20209;-58
2021/03/16 03:41:01;;;;;;;16.93;11.33;;;5.20;84.70;;;;;;4972132;28;20270;-58
2021/03/16 03:43:29;;;;;;;14.73;10.57;;;5.20;84.30;;;;;;4972214;28;20229;-59
2021/03/16 03:45:57;;;;;;;14.90;10.93;;;5.20;83.90;;;;;;4974082;28;20216;-59
2021/03/16 03:48:27;;;;;;;12.27;10.27;;;5.20;83.70;;;;;;4976459;28;20220;-59
2021/03/16 03:50:57;;;;;;;15.33;10.43;;;5.20;83.70;;;;;;4969008;28;20262;-59
2021/03/16 03:53:25;;;;;;;19.67;11.00;;;5.20;83.50;;;;;;4974548;28;20638;-59
2021/03/16 03:55:53;;;;;;;11.83;10.17;;;5.20;83.40;;;;;;4973383;28;20213;-59
2021/03/16 03:58:27;;;;;;;12.93;10.07;;;5.10;83.10;;;;;;4969504;28;20283;-59
2021/03/16 04:00:53;;;;;;;11.70;9.80;;;5.10;82.90;;;;;;4966655;28;20213;-59
2021/03/16 04:03:21;;;;;;;14.33;8.80;;;5.00;82.90;;;;;;4974280;28;20206;-59
2021/03/16 04:05:49;;;;;;;12.67;9.00;;;4.90;82.90;;;;;;4973034;28;20217;-59
2021/03/16 04:08:17;;;;;;;11.23;9.53;;;4.80;82.90;;;;;;4975038;28;20210;-59
2021/03/16 04:10:43;;;;;;;11.93;8.33;;;4.80;82.90;;;;;;4959053;28;20240;-59
2021/03/16 04:13:10;;;;;;;12.13;9.00;;;4.80;82.90;;;;;;4971899;28;20213;-59
2021/03/16 04:15:38;;;;;;;12.73;8.97;;;4.80;82.70;;;;;;4969332;28;20213;-59
2021/03/16 04:18:05;;;;;;;10.60;9.00;;;4.80;82.60;;;;;;4976452;28;20533;-59
2021/03/16 04:20:32;;;;;;;10.17;7.83;;;4.70;82.50;;;;;;4987343;28;20285;-59
2021/03/16 04:22:59;;;;;;;14.73;9.07;;;4.70;82.40;;;;;;4987788;28;20322;-59
2021/03/16 04:25:26;;;;;;;13.63;8.70;;;4.70;82.30;;;;;;4983436;28;20235;-59
2021/03/16 04:28:04;;;;;;;9.17;7.40;;;4.70;82.20;;;;;;4988504;28;20217;-59
2021/03/16 04:30:30;;;;;;;10.93;8.47;;;4.70;82.10;;;;;;4994617;28;20205;-59
2021/03/16 04:32:57;;;;;;;10.20;7.30;;;4.70;81.90;;;;;;4995158;28;20208;-59
2021/03/16 04:35:24;;;;;;;10.93;7.17;;;4.70;81.80;;;;;;4992405;28;20274;-59
2021/03/16 04:37:51;;;;;;;9.33;6.53;;;4.70;81.80;;;;;;4994537;28;20223;-59
2021/03/16 04:40:17;;;;;;;11.23;6.70;;;4.80;81.70;;;;;;4990888;28;20208;-59
2021/03/16 04:42:44;;;;;;;7.33;5.70;;;4.80;81.40;;;;;;4993342;28;20283;-59
2021/03/16 04:45:11;;;;;;;6.87;6.00;;;4.90;81.20;;;;;;4989523;28;20244;-59
2021/03/16 04:47:38;;;;;;;7.87;5.27;;;4.90;80.90;;;;;;4976714;28;20256;-59
2021/03/16 04:50:06;;;;;;;8.77;5.27;;;4.90;80.70;;;;;;4992790;28;20279;-59
2021/03/16 04:52:33;;;;;;;6.10;5.47;;;5.00;80.60;;;;;;4990278;28;20204;-59
2021/03/16 04:55:00;;;;;;;8.77;5.27;;;5.10;80.30;;;;;;4990668;28;20208;-59
2021/03/16 04:57:26;;;;;;;8.83;5.53;;;5.10;80.20;;;;;;4990434;28;20219;-59
2021/03/16 04:59:53;;;;;;;9.20;5.10;;;5.20;80.00;;;;;;4992988;28;20212;-59
2021/03/16 05:02:20;;;;;;;6.40;4.73;;;5.20;79.80;;;;;;4993544;28;20220;-59
2021/03/16 05:04:46;;;;;;;11.63;5.40;;;5.20;79.70;;;;;;4990111;28;20228;-59
2021/03/16 05:07:13;;;;;;;6.50;5.03;;;5.20;79.50;;;;;;4993891;28;20208;-59
2021/03/16 05:09:40;;;;;;;6.17;4.70;;;5.20;79.50;;;;;;4993317;28;20223;-59
2021/03/16 05:12:07;;;;;;;8.53;4.67;;;5.20;79.40;;;;;;4994048;28;20200;-59
2021/03/16 05:14:34;;;;;;;6.63;4.53;;;5.20;79.20;;;;;;4993295;28;20227;-59
2021/03/16 05:17:03;;;;;;;5.77;4.53;;;5.30;79.10;;;;;;4993529;28;20492;-59
2021/03/16 05:19:30;;;;;;;13.83;4.70;;;5.20;78.80;;;;;;4994013;28;20303;-59
2021/03/16 05:21:57;;;;;;;8.30;4.77;;;5.20;78.60;;;;;;4987859;28;20711;-59
2021/03/16 05:24:24;;;;;;;9.07;4.93;;;5.20;78.30;;;;;;4974225;28;20551;-59
2021/03/16 05:26:50;;;;;;;6.10;3.93;;;5.20;78.20;;;;;;4971773;28;20210;-59
2021/03/16 05:29:17;;;;;;;8.67;4.37;;;5.20;78.20;;;;;;4974000;28;20233;-59
2021/03/16 05:31:44;;;;;;;7.10;4.50;;;5.20;78.30;;;;;;4972982;28;20217;-59
2021/03/16 05:34:11;;;;;;;5.10;3.87;;;5.20;78.40;;;;;;4957646;28;20224;-59
2021/03/16 05:36:38;;;;;;;14.93;5.57;;;5.30;78.50;;;;;;4972521;28;20221;-59
2021/03/16 05:39:05;;;;;;;8.33;4.87;;;5.30;78.50;;;;;;4973855;28;20565;-59
2021/03/16 05:41:32;;;;;;;6.53;5.07;;;5.30;78.30;;;;;;4974141;28;20213;-59
2021/03/16 05:44:01;;;;;;;6.30;4.27;;;5.30;78.20;;;;;;4973838;28;20225;-59
2021/03/16 05:46:29;;;;;;;5.83;4.43;;;5.40;78.30;;;;;;4966639;28;20214;-59
2021/03/16 05:49:05;;;;;;;10.10;4.77;;;5.40;78.10;;;;;;4968608;28;20620;-59
2021/03/16 05:51:33;;;;;;;9.40;4.60;;;5.40;78.00;;;;;;4965755;28;20303;-59
2021/03/16 05:54:00;;;;;;;7.50;4.73;;;5.40;77.70;;;;;;4967934;28;20221;-59
2021/03/16 05:56:30;;;;;;;9.80;3.53;;;5.40;77.60;;;;;;4974505;28;20213;-59
2021/03/16 05:58:56;;;;;;;5.77;2.83;;;5.40;77.50;;;;;;4948088;28;20229;-59
2021/03/16 06:01:24;;;;;;;8.33;2.83;;;5.50;76.90;;;;;;4973163;28;20304;-59
2021/03/16 06:03:50;;;;;;;8.90;3.60;;;5.60;76.30;;;;;;4971200;28;20236;-59
2021/03/16 06:06:17;;;;;;;5.23;2.67;;;5.70;75.50;;;;;;4970440;28;20197;-59
2021/03/16 06:08:44;;;;;;;7.90;3.27;;;5.80;74.50;;;;;;4971974;28;20217;-59
2021/03/16 06:11:11;;;;;;;3.60;2.53;;;5.90;74.00;;;;;;4968046;28;20209;-59
2021/03/16 06:13:49;;;;;;;4.07;2.63;;;6.00;73.40;;;;;;4973476;28;20223;-59
2021/03/16 06:16:17;;;;;;;2.93;2.50;;;6.00;72.90;;;;;;4973253;28;20215;-60
2021/03/16 06:18:49;;;;;;;3.17;2.10;;;6.10;72.70;;;;;;4973252;28;20213;-59
2021/03/16 06:21:21;;;;;;;3.20;1.63;;;6.20;72.10;;;;;;4970587;28;20217;-59
2021/03/16 06:23:56;;;;;;;7.43;2.30;;;6.30;71.00;;;;;;4971932;28;20276;-59
2021/03/16 06:26:31;;;;;;;5.43;1.87;;;6.40;70.30;;;;;;4969266;28;20552;-59
2021/03/16 06:29:11;;;;;;;2.67;1.73;;;6.50;70.30;;;;;;4970463;28;20658;-59
2021/03/16 06:31:37;;;;;;;2.23;1.50;;;6.60;69.80;;;;;;4973865;28;20211;-59
2021/03/16 06:34:04;;;;;;;2.23;1.67;;;6.80;69.40;;;;;;4973553;28;20307;-59
2021/03/16 06:36:34;;;;;;;4.33;1.60;;;7.00;69.30;;;;;;4969744;28;20212;-59
2021/03/16 06:39:03;;;;;;;2.43;1.60;;;7.20;69.30;;;;;;4972867;28;20588;-59
2021/03/16 06:41:35;;;;;;;5.30;1.37;;;7.60;69.00;;;;;;4969654;28;20631;-59
2021/03/16 06:44:04;;;;;;;1.60;1.43;;;8.00;68.00;;;;;;4972459;28;20706;-59
2021/03/16 06:46:36;;;;;;;2.73;1.50;;;8.40;67.10;;;;;;4967659;28;20296;-59
2021/03/16 06:49:17;;;;;;;1.73;1.40;;;8.80;65.60;;;;;;4971491;28;20632;-60
2021/03/16 06:51:45;;;;;;;2.43;1.00;;;9.10;63.90;;;;;;4971131;28;20223;-60
2021/03/16 06:54:19;;;;;;;1.50;1.10;;;9.40;62.70;;;;;;4970157;28;20209;-59
2021/03/16 06:56:56;;;;;;;2.80;1.13;;;9.60;61.20;;;;;;4970334;28;20216;-59
2021/03/16 06:59:26;;;;;;;8.17;1.70;;;9.80;60.00;;;;;;4965152;28;20209;-59
2021/03/16 07:01:53;;;;;;;1.67;1.00;;;10.00;59.40;;;;;;4972600;28;20213;-59
2021/03/16 07:04:29;;;;;;;3.93;1.17;;;10.10;59.40;;;;;;4968237;28;20321;-59
2021/03/16 07:06:56;;;;;;;3.83;1.67;;;10.20;58.50;;;;;;4965574;28;20263;-59
2021/03/16 07:09:22;;;;;;;1.10;1.00;;;10.30;55.00;;;;;;4972619;28;20205;-59
2021/03/16 07:11:52;;;;;;;0.97;0.70;;;10.30;54.70;;;;;;4971081;28;20305;-59
2021/03/16 07:14:20;;;;;;;1.27;0.90;;;10.30;54.70;;;;;;4972536;28;20216;-59
2021/03/16 07:16:49;;;;;;;2.23;1.27;;;10.30;54.60;;;;;;4963232;28;20205;-60
2021/03/16 07:19:17;;;;;;;1.57;1.03;;;10.20;55.00;;;;;;4974902;28;20240;-60
2021/03/16 07:21:55;;;;;;;3.00;1.73;;;10.10;54.90;;;;;;4971277;28;20224;-59
2021/03/16 07:24:24;;;;;;;7.57;1.60;;;9.90;53.70;;;;;;4974557;28;20555;-59
2021/03/16 07:26:51;;;;;;;5.77;1.00;;;9.70;54.30;;;;;;4972207;28;20201;-59
2021/03/16 07:29:18;;;;;;;3.47;1.07;;;9.60;55.70;;;;;;4967438;28;20213;-59
2021/03/16 07:32:02;;;;;;;3.37;1.00;;;9.60;55.90;;;;;;4950254;28;20244;-59
2021/03/16 07:34:30;;;;;;;6.30;1.23;;;9.70;56.00;;;;;;4976397;28;20627;-59
2021/03/16 07:36:57;;;;;;;1.83;1.30;;;9.80;55.10;;;;;;4961801;28;20214;-59
2021/03/16 07:39:25;;;;;;;7.03;1.13;;;10.10;54.40;;;;;;4976719;28;20213;-60
2021/03/16 07:41:52;;;;;;;1.00;0.90;;;10.30;54.30;;;;;;4957732;28;20245;-59
2021/03/16 07:44:22;;;;;;;1.17;0.77;;;10.60;53.70;;;;;;4975866;28;20603;-60
2021/03/16 07:47:00;;;;;;;2.30;1.40;;;10.70;53.20;;;;;;4972775;28;20212;-59
2021/03/16 07:49:33;;;;;;;4.93;1.10;;;10.90;53.20;;;;;;4956992;28;20297;-60
2021/03/16 07:52:00;;;;;;;1.73;0.83;;;11.00;52.70;;;;;;4964574;28;20300;-59
2021/03/16 07:54:39;;;;;;;2.70;0.70;;;11.20;52.10;;;;;;4952207;28;20216;-60
2021/03/16 07:57:06;;;;;;;5.27;1.67;;;11.40;52.40;;;;;;4949407;28;20304;-60
2021/03/16 07:59:35;;;;;;;8.10;1.27;;;11.60;51.70;;;;;;4973636;28;20213;-60
2021/03/16 08:02:05;;;;;;;2.27;1.10;;;11.80;51.00;;;;;;4975978;28;20217;-59
2021/03/16 08:04:36;;;;;;;3.83;0.80;;;12.00;50.80;;;;;;4967661;28;20268;-60
2021/03/16 08:07:06;;;;;;;1.90;1.10;;;12.20;50.70;;;;;;4976105;28;20303;-58
2021/03/16 08:09:53;;;;;;;2.97;1.10;;;12.40;50.50;;;;;;4958619;28;20308;-60
2021/03/16 08:12:29;;;;;;;3.13;1.10;;;12.60;49.80;;;;;;4968258;28;20288;-60
2021/03/16 08:15:08;;;;;;;3.83;1.10;;;12.80;49.30;;;;;;4973326;28;20251;-59
2021/03/16 08:17:35;;;;;;;2.47;1.23;;;12.90;48.40;;;;;;4963648;28;20213;-59
2021/03/16 08:20:06;;;;;;;1.77;1.13;;;13.10;48.50;;;;;;4955742;28;20618;-60
2021/03/16 08:22:33;;;;;;;2.57;1.23;;;13.30;48.00;;;;;;4974014;28;20632;-59
2021/03/16 08:25:06;;;;;;;2.30;1.20;;;13.50;48.10;;;;;;4971862;28;20237;-60
2021/03/16 08:27:34;;;;;;;1.20;0.90;;;13.60;47.00;;;;;;4964596;28;20209;-60
2021/03/16 08:30:11;;;;;;;4.13;1.50;;;13.80;46.80;;;;;;4975957;28;20276;-59
2021/03/16 08:32:38;;;;;;;1.60;1.10;;;13.90;46.50;;;;;;4959939;28;20307;-59
2021/03/16 08:35:06;;;;;;;1.63;0.97;;;14.00;46.20;;;;;;4962557;28;20309;-59
2021/03/16 08:37:36;;;;;;;1.37;1.20;;;14.20;45.40;;;;;;4959212;28;20274;-59
2021/03/16 08:40:25;;;;;;;2.67;0.87;;;14.30;44.80;;;;;;4975137;28;20300;-60
2021/03/16 08:42:52;;;;;;;2.00;1.00;;;14.40;45.30;;;;;;4958985;28;20215;-59
2021/03/16 08:45:31;;;;;;;4.43;1.10;;;14.50;45.80;;;;;;4972938;28;20244;-59
2021/03/16 08:47:58;;;;;;;1.63;1.20;;;14.60;44.50;;;;;;4974664;28;20202;-59
2021/03/16 08:50:26;;;;;;;1.60;1.17;;;14.80;44.60;;;;;;4949018;28;20300;-59
2021/03/16 08:52:53;;;;;;;3.83;1.20;;;14.80;44.80;;;;;;4974319;28;20699;-60
2021/03/16 08:55:29;;;;;;;5.13;1.30;;;15.00;45.00;;;;;;4975742;28;20220;-60
2021/03/16 08:57:56;;;;;;;1.33;1.03;;;15.20;43.70;;;;;;4951852;28;20296;-59
2021/03/16 09:00:27;;;;;;;0.80;0.77;;;15.20;43.30;;;;;;4953428;28;20216;-59
2021/03/16 09:02:54;;;;;;;2.30;1.00;;;15.40;42.80;;;;;;4974673;28;20240;-60
2021/03/16 09:05:27;;;;;;;2.30;0.90;;;15.50;42.70;;;;;;4973933;28;20233;-60
2021/03/16 09:07:56;;;;;;;2.63;1.37;;;15.60;42.10;;;;;;4958566;28;20205;-60
2021/03/16 09:10:24;;;;;;;1.27;1.00;;;15.70;41.50;;;;;;4954623;28;20308;-59
2021/03/16 09:12:51;;;;;;;12.00;1.87;;;15.70;41.50;;;;;;4975350;28;20213;-59
2021/03/16 09:15:33;;;;;;;5.97;1.30;;;15.80;41.90;;;;;;4958720;28;20633;-59
2021/03/16 09:18:05;;;;;;;4.47;1.23;;;15.90;41.60;;;;;;4947262;28;20209;-59
2021/03/16 09:20:38;;;;;;;1.23;0.90;;;16.00;42.30;;;;;;4974990;28;20213;-62
2021/03/16 09:23:08;;;;;;;3.30;1.10;;;16.20;41.50;;;;;;4969122;28;20254;-59
2021/03/16 09:25:40;;;;;;;1.40;1.30;;;16.30;41.70;;;;;;4979828;28;20248;-60
2021/03/16 09:28:10;;;;;;;7.17;1.07;;;16.50;41.70;;;;;;4991052;28;20283;-60
2021/03/16 09:30:48;;;;;;;3.13;0.90;;;16.70;40.20;;;;;;4983617;28;20288;-60
2021/03/16 09:33:19;;;;;;;1.87;0.83;;;16.80;40.00;;;;;;4994123;28;20278;-60
2021/03/16 09:36:02;;;;;;;5.03;0.90;;;16.90;38.90;;;;;;4978899;28;20219;-60
2021/03/16 09:38:29;;;;;;;1.83;0.80;;;16.90;37.10;;;;;;4991848;28;20220;-60
2021/03/16 09:40:56;;;;;;;2.33;0.87;;;17.00;37.50;;;;;;4988822;28;20236;-60
2021/03/16 09:43:34;;;;;;;2.47;1.00;;;17.10;36.90;;;;;;4977052;28;20247;-59
2021/03/16 09:46:05;;;;;;;1.60;0.73;;;17.10;35.80;;;;;;4988563;28;20233;-57
2021/03/16 09:48:33;;;;;;;1.10;0.80;;;17.00;35.40;;;;;;4993987;28;20303;-60
2021/03/16 09:51:12;;;;;;;1.53;1.10;;;17.00;35.30;;;;;;4985818;28;20215;-57
2021/03/16 09:53:48;;;;;;;5.27;1.57;;;17.00;34.90;;;;;;4976926;28;20204;-59
2021/03/16 09:56:15;;;;;;;1.17;0.93;;;17.00;35.80;;;;;;4972814;28;20846;-59
2021/03/16 09:58:52;;;;;;;2.43;1.07;;;16.90;33.80;;;;;;4977587;28;20709;-59
2021/03/16 10:01:20;;;;;;;2.47;1.20;;;16.90;34.30;;;;;;4984245;28;20208;-58
2021/03/16 10:03:58;;;;;;;4.80;1.40;;;16.80;33.90;;;;;;4976274;28;20240;-58
2021/03/16 10:06:37;;;;;;;1.93;1.67;;;16.70;34.30;;;;;;4988010;28;20686;-57
2021/03/16 10:09:21;;;;;;;5.90;2.37;;;16.60;35.40;;;;;;4986594;28;20291;-59
2021/03/16 10:11:50;;;;;;;1.53;1.30;;;16.70;35.30;;;;;;4992455;28;20236;-59
2021/03/16 10:14:31;;;;;;;3.03;1.50;;;16.80;35.60;;;;;;4991884;28;20223;-58
2021/03/16 10:16:58;;;;;;;4.40;1.73;;;16.80;35.00;;;;;;4991612;28;20216;-57
2021/03/16 10:19:25;;;;;;;4.60;1.77;;;16.90;35.00;;;;;;4987526;28;20216;-58
2021/03/16 10:21:53;;;;;;;3.87;2.00;;;16.90;34.60;;;;;;4987336;28;20327;-59
2021/03/16 10:24:25;;;;;;;6.20;2.00;;;16.90;35.00;;;;;;4974181;28;20319;-60
2021/03/16 10:27:01;;;;;;;4.13;1.87;;;17.00;34.60;;;;;;4959646;28;20296;-58
2021/03/16 10:29:28;;;;;;;3.27;2.13;;;17.10;35.10;;;;;;4972941;28;20714;-60
2021/03/16 10:31:54;;;;;;;3.07;2.13;;;17.20;33.60;;;;;;4956303;28;20301;-56
2021/03/16 10:34:21;;;;;;;4.03;2.30;;;17.20;32.20;;;;;;4974267;28;20301;-60
2021/03/16 10:36:48;;;;;;;3.63;2.17;;;17.20;32.00;;;;;;4970634;28;20617;-59
2021/03/16 10:39:14;;;;;;;2.07;1.80;;;17.10;32.70;;;;;;4973841;28;20213;-59
2021/03/16 10:41:41;;;;;;;3.30;2.00;;;17.20;30.00;;;;;;4955348;28;20216;-58
2021/03/16 10:44:08;;;;;;;2.00;1.87;;;17.20;31.90;;;;;;4971308;28;20256;-58
2021/03/16 10:46:35;;;;;;;1.90;1.70;;;17.40;31.00;;;;;;4973299;28;20213;-59
2021/03/16 10:49:02;;;;;;;4.40;2.10;;;17.60;29.50;;;;;;4953680;28;20241;-59
2021/03/16 10:51:33;;;;;;;10.40;2.33;;;17.60;29.90;;;;;;4971389;28;20216;-61
2021/03/16 10:54:00;;;;;;;2.07;1.77;;;17.70;29.70;;;;;;4968297;28;20211;-58
2021/03/16 10:56:27;;;;;;;2.13;1.40;;;17.80;29.10;;;;;;4956230;28;20655;-61
2021/03/16 10:58:54;;;;;;;2.33;1.80;;;17.70;28.10;;;;;;4956468;28;20209;-61
2021/03/16 11:01:20;;;;;;;3.40;1.70;;;17.70;28.40;;;;;;4969772;28;20264;-58
2021/03/16 11:03:47;;;;;;;1.50;1.40;;;17.80;29.40;;;;;;4973407;28;20213;-62
2021/03/16 11:06:14;;;;;;;2.50;1.43;;;18.00;27.40;;;;;;4971522;28;20209;-62
2021/03/16 11:08:41;;;;;;;1.40;1.30;;;18.10;27.20;;;;;;4970498;28;20470;-58
2021/03/16 11:11:08;;;;;;;1.57;1.33;;;18.00;28.10;;;;;;4978678;28;20209;-57
2021/03/16 11:13:35;;;;;;;2.80;1.30;;;18.10;28.00;;;;;;4971381;28;20213;-58
2021/03/16 11:16:02;;;;;;;1.20;1.10;;;18.20;28.20;;;;;;4970702;28;20692;-59
2021/03/16 11:18:30;;;;;;;5.00;1.83;;;18.30;27.10;;;;;;4969364;28;20220;-62
2021/03/16 11:20:57;;;;;;;1.43;1.20;;;18.40;27.90;;;;;;4972905;28;20587;-60
2021/03/16 11:23:24;;;;;;;0.93;0.90;;;18.60;27.10;;;;;;4964568;28;20336;-59
2021/03/16 11:25:51;;;;;;;0.70;0.70;;;18.70;25.90;;;;;;4973278;28;20309;-58
2021/03/16 11:28:18;;;;;;;1.00;0.93;;;18.50;26.00;;;;;;4958323;28;20655;-59
2021/03/16 11:30:44;;;;;;;1.23;1.10;;;18.20;25.80;;;;;;4971806;28;20209;-61
2021/03/16 11:33:11;;;;;;;1.10;0.83;;;17.90;26.70;;;;;;4972034;28;20686;-61
2021/03/16 11:35:38;;;;;;;1.33;1.13;;;17.90;25.70;;;;;;4970937;28;20607;-63
2021/03/16 11:38:05;;;;;;;0.87;0.87;;;17.90;25.90;;;;;;4969981;28;20304;-57
2021/03/16 11:40:31;;;;;;;3.57;1.00;;;18.00;26.70;;;;;;4964718;28;20216;-59
2021/03/16 11:42:58;;;;;;;2.40;1.13;;;18.30;26.10;;;;;;4969396;28;20245;-60
2021/03/16 11:45:25;;;;;;;1.20;1.10;;;18.60;26.80;;;;;;4953312;28;20245;-58
2021/03/16 11:47:52;;;;;;;1.50;0.90;;;19.00;26.00;;;;;;4955316;28;20295;-60
2021/03/16 11:50:19;;;;;;;1.03;0.97;;;19.00;26.30;;;;;;4955657;28;20280;-59
2021/03/16 11:52:46;;;;;;;0.77;0.77;;;18.70;25.60;;;;;;4972269;28;20216;-58
2021/03/16 11:55:14;;;;;;;0.73;0.73;;;18.50;25.50;;;;;;4968061;28;20209;-60
2021/03/16 11:57:41;;;;;;;2.20;0.83;;;18.30;26.10;;;;;;4954110;28;20210;-58
2021/03/16 12:00:08;;;;;;;2.13;0.90;;;18.20;26.00;;;;;;4968397;28;20213;-59
2021/03/16 12:02:36;;;;;;;1.50;1.10;;;18.30;25.60;;;;;;4941228;28;20221;-60
2021/03/16 12:05:04;;;;;;;0.90;0.90;;;18.20;25.80;;;;;;4965701;28;20516;-60
2021/03/16 12:07:33;;;;;;;2.60;0.93;;;18.20;25.80;;;;;;4969788;28;20209;-61
2021/03/16 12:10:00;;;;;;;0.50;0.50;;;18.40;26.30;;;;;;4969394;28;20291;-60
2021/03/16 12:12:27;;;;;;;0.73;0.73;;;18.70;25.50;;;;;;4964709;28;20702;-60
2021/03/16 12:14:53;;;;;;;1.03;0.77;;;18.60;24.60;;;;;;4973138;28;20213;-60
2021/03/16 12:17:20;;;;;;;1.07;0.70;;;18.10;25.20;;;;;;4976328;28;20213;-60
2021/03/16 12:19:47;;;;;;;2.27;0.77;;;17.90;25.80;;;;;;4963425;28;20238;-60
2021/03/16 12:22:14;;;;;;;0.63;0.60;;;17.70;25.60;;;;;;4981805;28;20246;-60
2021/03/16 12:24:41;;;;;;;0.67;0.60;;;17.50;25.30;;;;;;4993348;28;20315;-60
2021/03/16 12:27:08;;;;;;;7.80;1.20;;;17.40;26.00;;;;;;4993531;28;20536;-60
2021/03/16 12:29:35;;;;;;;1.10;0.80;;;17.30;26.60;;;;;;4994000;28;20582;-60
2021/03/16 12:32:02;;;;;;;2.13;0.73;;;17.10;26.50;;;;;;4994985;28;20215;-60
2021/03/16 12:34:44;;;;;;;2.10;0.90;;;16.90;25.80;;;;;;4993199;28;20220;-60
2021/03/16 12:37:11;;;;;;;2.43;0.90;;;16.70;25.90;;;;;;4992730;28;20212;-60
2021/03/16 12:39:38;;;;;;;1.80;0.50;;;16.50;26.20;;;;;;4993656;28;20216;-60
2021/03/16 12:42:05;;;;;;;2.10;0.50;;;16.30;25.90;;;;;;4990116;28;20217;-60
2021/03/16 12:44:32;;;;;;;0.40;0.40;;;16.30;25.70;;;;;;4994530;28;20259;-60
2021/03/16 12:47:01;;;;;;;1.93;0.67;;;16.40;25.70;;;;;;4987458;28;20217;-60
2021/03/16 12:49:27;;;;;;;3.33;0.70;;;16.80;26.40;;;;;;4995561;28;20205;-60
2021/03/16 12:51:54;;;;;;;0.60;0.60;;;17.10;26.10;;;;;;4999742;28;20666;-61
2021/03/16 12:54:22;;;;;;;3.30;1.60;;;17.10;24.80;;;;;;4988649;28;20213;-60
2021/03/16 12:56:50;;;;;;;1139.87;773.17;;;16.90;25.60;;;;;;4983310;28;20214;-60
2021/03/16 12:59:17;;;;;;;1005.27;741.97;;;16.80;26.70;;;;;;4990028;28;20223;-60